X  Cerrar Datos meteorológicos de aviación METAR     LZPP Piešťany Airport
Temperatura
66°F Temperatura
57°F Punto de rocío
73% Humedad



Viento
5 MPH
8 KM/H
2 M/S
4 NUDO



50°
NE
Condiciones actuales

Mayormente nublado Mayormente nublado
Presión 1009.82 (hPa) - 29.82 (inHg)
Visibilidad 6 (milla) - 9.7 (km)
Aeropuerto
Código de aeropuerto LZPP

localidad: Piešťany Airport
Distancia: 31 (mi)

Metar:
LZPP 221300Z 05004KT 340V100 9999 BKN024 19/14 Q1010

Hora: 22-05-2024 15:00 CEST